createdAt,value
2019-03-17T00:01:13.373Z,5.10
2019-03-17T00:03:41.461Z,4.40
2019-03-17T00:06:09.618Z,5.17
2019-03-17T00:08:37.791Z,4.97
2019-03-17T00:11:06.322Z,5.87
2019-03-17T00:13:34.710Z,5.90
2019-03-17T00:16:02.888Z,5.80
2019-03-17T00:18:30.996Z,5.83
2019-03-17T00:20:59.053Z,5.37
2019-03-17T00:23:27.203Z,5.30
2019-03-17T00:25:55.360Z,5.63
2019-03-17T00:28:23.485Z,5.63
2019-03-17T00:30:51.678Z,5.97
2019-03-17T00:33:20.267Z,5.00
2019-03-17T00:35:48.449Z,5.03
2019-03-17T00:38:17.647Z,5.37
2019-03-17T00:40:45.784Z,5.57
2019-03-17T00:43:13.904Z,5.40
2019-03-17T00:45:42.509Z,5.30
2019-03-17T00:48:10.593Z,5.30
2019-03-17T00:50:38.929Z,5.30
2019-03-17T00:53:07.017Z,5.20
2019-03-17T00:55:35.316Z,4.90
2019-03-17T00:58:03.459Z,6.03
2019-03-17T01:00:32.511Z,5.30
2019-03-17T01:03:00.695Z,5.90
2019-03-17T01:05:31.092Z,5.13
2019-03-17T01:07:59.684Z,5.60
2019-03-17T01:10:27.879Z,5.90
2019-03-17T01:12:55.947Z,5.20
2019-03-17T01:15:24.246Z,5.03
2019-03-17T01:17:52.600Z,4.90
2019-03-17T01:20:21.180Z,5.70
2019-03-17T01:22:49.727Z,5.20
2019-03-17T01:25:17.894Z,5.60
2019-03-17T01:27:46.587Z,4.80
2019-03-17T01:30:14.755Z,4.73
2019-03-17T01:32:43.155Z,5.20
2019-03-17T01:35:11.273Z,5.03
2019-03-17T01:37:39.347Z,5.83
2019-03-17T01:40:07.677Z,4.83
2019-03-17T01:42:35.826Z,4.87
2019-03-17T01:45:06.560Z,4.57
2019-03-17T01:47:34.846Z,5.83
2019-03-17T01:50:03.747Z,5.17
2019-03-17T01:52:31.937Z,4.60
2019-03-17T01:55:00.064Z,5.10
2019-03-17T01:57:28.165Z,4.90
2019-03-17T01:59:56.287Z,5.43
2019-03-17T02:02:24.995Z,4.97
2019-03-17T02:04:53.385Z,4.63
2019-03-17T02:07:21.686Z,5.33
2019-03-17T02:09:49.781Z,5.20
2019-03-17T02:12:17.852Z,4.87
2019-03-17T02:14:46.021Z,4.90
2019-03-17T02:17:14.316Z,4.77
2019-03-17T02:19:42.448Z,5.10
2019-03-17T02:22:10.719Z,5.07
2019-03-17T02:24:38.950Z,5.40
2019-03-17T02:27:07.026Z,4.10
2019-03-17T02:29:35.171Z,4.67
2019-03-17T02:32:03.398Z,5.17
2019-03-17T02:34:31.501Z,5.30
2019-03-17T02:37:00.077Z,5.13
2019-03-17T02:39:28.227Z,4.83
2019-03-17T02:41:56.431Z,4.60
2019-03-17T02:44:24.542Z,4.30
2019-03-17T02:46:52.653Z,4.67
2019-03-17T02:49:20.730Z,4.67
2019-03-17T02:51:48.977Z,4.43
2019-03-17T02:54:17.919Z,4.03
2019-03-17T02:56:46.162Z,4.67
2019-03-17T02:59:14.345Z,4.63
2019-03-17T03:01:42.504Z,4.33
2019-03-17T03:04:10.688Z,3.97
2019-03-17T03:06:38.904Z,4.03
2019-03-17T03:09:07.385Z,4.70
2019-03-17T03:11:35.647Z,4.13
2019-03-17T03:14:03.734Z,4.27
2019-03-17T03:16:31.792Z,4.10
2019-03-17T03:19:00.066Z,3.80
2019-03-17T03:21:28.148Z,5.00
2019-03-17T03:23:56.255Z,3.00
2019-03-17T03:26:24.353Z,3.37
2019-03-17T03:28:52.492Z,3.80
2019-03-17T03:31:20.747Z,3.83
2019-03-17T03:33:49.000Z,3.73
2019-03-17T03:36:17.788Z,3.57
2019-03-17T03:38:45.910Z,3.33
2019-03-17T03:41:13.987Z,3.40
2019-03-17T03:43:42.281Z,4.03
2019-03-17T03:46:10.373Z,3.60
2019-03-17T03:48:38.449Z,3.77
2019-03-17T03:51:08.473Z,3.00
2019-03-17T03:53:36.508Z,3.63
2019-03-17T03:56:04.729Z,3.17
2019-03-17T03:58:33.018Z,3.33
2019-03-17T04:01:01.182Z,3.13
2019-03-17T04:03:29.208Z,2.80
2019-03-17T04:05:57.307Z,2.93
2019-03-17T04:08:25.675Z,2.97
2019-03-17T04:10:53.759Z,3.27
2019-03-17T04:13:21.981Z,2.90
2019-03-17T04:15:50.177Z,2.87
2019-03-17T04:18:18.320Z,2.70
2019-03-17T04:20:47.232Z,2.30
2019-03-17T04:23:15.824Z,3.43
2019-03-17T04:25:43.892Z,1.97
2019-03-17T04:28:12.060Z,2.83
2019-03-17T04:30:40.141Z,2.60
2019-03-17T04:33:08.317Z,2.53
2019-03-17T04:35:36.443Z,2.53
2019-03-17T04:38:04.595Z,2.50
2019-03-17T04:40:32.716Z,3.33
2019-03-17T04:43:00.814Z,2.37
2019-03-17T04:45:29.691Z,2.60
2019-03-17T04:47:58.178Z,2.90
2019-03-17T04:50:26.674Z,2.50
2019-03-17T04:52:55.079Z,2.90
2019-03-17T04:55:23.226Z,2.67
2019-03-17T04:57:51.348Z,2.87
2019-03-17T05:00:19.596Z,3.13
2019-03-17T05:02:47.679Z,2.57
2019-03-17T05:05:15.862Z,2.50
2019-03-17T05:07:43.971Z,3.37
2019-03-17T05:10:12.107Z,2.53
2019-03-17T05:12:40.214Z,2.57
2019-03-17T05:15:08.930Z,2.97
2019-03-17T05:17:37.064Z,2.60
2019-03-17T05:20:05.695Z,2.63
2019-03-17T05:22:33.871Z,2.87
2019-03-17T05:25:01.953Z,2.90
2019-03-17T05:27:30.074Z,3.20
2019-03-17T05:29:58.192Z,2.40
2019-03-17T05:32:26.720Z,2.97
2019-03-17T05:34:54.961Z,2.70
2019-03-17T05:37:23.068Z,2.57
2019-03-17T05:39:51.199Z,3.17
2019-03-17T05:42:19.420Z,3.00
2019-03-17T05:44:47.622Z,2.53
2019-03-17T05:47:15.769Z,2.67
2019-03-17T05:49:43.849Z,2.50
2019-03-17T05:52:11.969Z,3.00
2019-03-17T05:54:40.091Z,2.70
2019-03-17T05:57:08.289Z,2.47
2019-03-17T05:59:36.431Z,2.93
2019-03-17T06:02:04.530Z,2.57
2019-03-17T06:04:32.615Z,3.10
2019-03-17T06:07:00.737Z,2.77
2019-03-17T06:09:29.326Z,2.33
2019-03-17T06:11:57.649Z,2.20
2019-03-17T06:14:25.784Z,2.93
2019-03-17T06:16:53.909Z,2.73
2019-03-17T06:19:22.019Z,0.90
2019-03-17T06:21:50.086Z,0.97
2019-03-17T06:24:18.244Z,0.90
2019-03-17T06:26:46.485Z,0.80
2019-03-17T06:29:14.663Z,0.87
2019-03-17T06:31:42.745Z,1.23
2019-03-17T06:34:11.021Z,1.10
2019-03-17T06:36:39.263Z,0.70
2019-03-17T06:39:08.642Z,0.70
2019-03-17T06:41:37.082Z,1.00
2019-03-17T06:44:05.273Z,1.07
2019-03-17T06:46:33.588Z,1.00
2019-03-17T06:49:01.756Z,0.90
2019-03-17T06:51:29.867Z,1.33
2019-03-17T06:53:58.060Z,1.10
2019-03-17T06:56:26.203Z,1.40
2019-03-17T06:58:55.539Z,1.10
2019-03-17T07:01:24.962Z,1.27
2019-03-17T07:03:53.169Z,1.37
2019-03-17T07:06:21.487Z,0.90
2019-03-17T07:08:49.693Z,1.00
2019-03-17T07:11:17.915Z,0.80
2019-03-17T07:13:46.059Z,0.60
2019-03-17T07:16:14.185Z,0.70
2019-03-17T07:18:42.489Z,0.77
2019-03-17T07:21:10.709Z,0.50
2019-03-17T07:23:38.798Z,0.80
2019-03-17T07:26:07.338Z,0.50
2019-03-17T07:28:35.521Z,0.50
2019-03-17T07:31:04.522Z,0.70
2019-03-17T07:33:33.298Z,0.80
2019-03-17T07:36:01.471Z,0.87
2019-03-17T07:38:29.766Z,1.10
2019-03-17T07:40:57.906Z,1.23
2019-03-17T07:43:26.008Z,1.70
2019-03-17T07:45:54.243Z,1.53
2019-03-17T07:48:22.300Z,1.23
2019-03-17T07:50:50.610Z,1.07
2019-03-17T07:53:18.717Z,0.97
2019-03-17T07:55:46.934Z,1.27
2019-03-17T07:58:15.023Z,0.83
2019-03-17T08:00:43.533Z,0.80
2019-03-17T08:03:12.030Z,0.60
2019-03-17T08:05:40.251Z,1.10
2019-03-17T08:08:09.988Z,0.70
2019-03-17T08:10:40.096Z,0.83
2019-03-17T08:13:08.496Z,0.73
2019-03-17T08:15:36.694Z,1.43
2019-03-17T08:18:04.772Z,0.97
2019-03-17T08:20:32.973Z,1.17
2019-03-17T08:23:01.146Z,1.47
2019-03-17T08:25:29.301Z,1.20
2019-03-17T08:27:57.600Z,1.10
2019-03-17T08:30:25.843Z,1.83
2019-03-17T08:32:54.921Z,1.13
2019-03-17T08:35:23.486Z,1.53
2019-03-17T08:37:51.881Z,1.80
2019-03-17T08:40:20.180Z,1.10
2019-03-17T08:42:48.273Z,1.33
2019-03-17T08:45:16.500Z,1.40
2019-03-17T08:47:56.535Z,1.50
2019-03-17T08:50:15.345Z,1.60
2019-03-17T08:52:43.593Z,1.53
2019-03-17T08:55:11.801Z,1.40
2019-03-17T08:57:40.011Z,1.20
2019-03-17T09:00:09.962Z,1.43
2019-03-17T09:02:38.075Z,1.20
2019-03-17T09:05:06.370Z,1.20
2019-03-17T09:07:35.053Z,1.50
2019-03-17T09:10:06.002Z,2.07
2019-03-17T09:12:34.153Z,1.43
2019-03-17T09:15:03.305Z,1.10
2019-03-17T09:17:31.789Z,1.50
2019-03-17T09:20:00.052Z,1.80
2019-03-17T09:22:28.211Z,1.60
2019-03-17T09:24:56.304Z,1.80
2019-03-17T09:27:24.377Z,1.67
2019-03-17T09:29:53.871Z,1.73
2019-03-17T09:32:21.982Z,1.60
2019-03-17T09:34:50.075Z,2.10
2019-03-17T09:37:18.222Z,1.80
2019-03-17T09:39:47.421Z,1.93
2019-03-17T09:42:15.606Z,1.40
2019-03-17T09:44:43.685Z,1.47
2019-03-17T09:47:11.797Z,1.93
2019-03-17T09:49:39.872Z,1.47
2019-03-17T09:52:08.290Z,1.80
2019-03-17T09:54:36.927Z,1.97
2019-03-17T09:57:05.074Z,1.63
2019-03-17T09:59:33.172Z,1.97
2019-03-17T10:02:01.637Z,1.90
2019-03-17T10:04:29.830Z,1.33
2019-03-17T10:06:58.009Z,2.20
2019-03-17T10:09:26.080Z,1.90
2019-03-17T10:11:54.216Z,1.70
2019-03-17T10:14:22.667Z,1.70
2019-03-17T10:16:50.887Z,1.43
2019-03-17T10:19:19.122Z,1.60
2019-03-17T10:21:47.236Z,1.57
2019-03-17T10:24:15.324Z,1.70
2019-03-17T10:26:43.536Z,1.60
2019-03-17T10:29:11.583Z,1.37
2019-03-17T10:31:39.798Z,1.70
2019-03-17T10:34:07.935Z,1.37
2019-03-17T10:36:36.085Z,1.87
2019-03-17T10:39:12.355Z,1.50
2019-03-17T10:41:35.782Z,2.00
2019-03-17T10:44:04.008Z,1.67
2019-03-17T10:46:32.144Z,2.50
2019-03-17T10:49:00.237Z,2.47
2019-03-17T10:51:28.469Z,2.17
2019-03-17T10:53:56.647Z,1.90
2019-03-17T10:56:24.950Z,1.63
2019-03-17T10:58:55.403Z,2.00
2019-03-17T11:01:23.635Z,1.40
2019-03-17T11:03:51.845Z,1.30
2019-03-17T11:06:20.063Z,1.90
2019-03-17T11:08:48.205Z,1.30
2019-03-17T11:11:16.344Z,1.67
2019-03-17T11:13:44.432Z,1.30
2019-03-17T11:16:12.850Z,1.57
2019-03-17T11:18:41.099Z,1.70
2019-03-17T11:21:10.147Z,2.40
2019-03-17T11:23:38.217Z,1.80
2019-03-17T11:26:08.124Z,1.50
2019-03-17T11:28:36.215Z,2.07
2019-03-17T11:31:05.202Z,1.40
2019-03-17T11:33:34.000Z,0.90
2019-03-17T11:36:02.077Z,1.40
2019-03-17T11:38:30.209Z,1.43
2019-03-17T11:40:58.271Z,1.40
2019-03-17T11:43:26.397Z,1.30
2019-03-17T11:45:54.537Z,1.43
2019-03-17T11:48:22.820Z,1.07
2019-03-17T11:50:51.062Z,1.37
2019-03-17T11:53:19.180Z,1.50
2019-03-17T11:55:47.228Z,1.60
2019-03-17T11:58:15.686Z,1.70
2019-03-17T12:00:44.555Z,1.77
2019-03-17T12:03:12.685Z,1.40
2019-03-17T12:05:40.767Z,1.57
2019-03-17T12:08:08.922Z,1.60
2019-03-17T12:10:37.103Z,1.73
2019-03-17T12:13:05.263Z,1.10
2019-03-17T12:15:33.472Z,0.83
2019-03-17T12:18:01.684Z,0.80
2019-03-17T12:20:29.768Z,0.80
2019-03-17T12:22:58.154Z,1.00
2019-03-17T12:25:26.343Z,0.87
2019-03-17T12:27:54.478Z,0.73
2019-03-17T12:30:22.855Z,0.87
2019-03-17T12:32:51.432Z,0.60
2019-03-17T12:35:19.670Z,0.70
2019-03-17T12:37:47.803Z,0.57
2019-03-17T12:40:16.134Z,0.80
2019-03-17T12:42:44.445Z,0.70
2019-03-17T12:45:12.780Z,0.70
2019-03-17T12:47:41.077Z,0.60
2019-03-17T12:50:11.451Z,0.60
2019-03-17T12:52:39.569Z,0.60
2019-03-17T12:55:07.817Z,0.40
2019-03-17T12:57:35.951Z,0.80
2019-03-17T13:00:05.630Z,0.77
2019-03-17T13:02:33.874Z,0.90
2019-03-17T13:05:02.097Z,1.23
2019-03-17T13:07:30.340Z,0.60
2019-03-17T13:09:58.504Z,0.83
2019-03-17T13:12:26.770Z,0.50
2019-03-17T13:14:54.902Z,0.67
2019-03-17T13:17:23.122Z,0.70
2019-03-17T13:19:51.241Z,0.70
2019-03-17T13:22:19.403Z,0.80
2019-03-17T13:24:47.574Z,0.67
2019-03-17T13:27:15.675Z,1.10
2019-03-17T13:29:44.532Z,1.13
2019-03-17T13:32:12.709Z,1.37
2019-03-17T13:34:40.794Z,1.20
2019-03-17T13:37:08.882Z,1.10
2019-03-17T13:39:37.022Z,1.03
2019-03-17T13:42:05.228Z,1.00
2019-03-17T13:44:33.376Z,0.70
2019-03-17T13:47:01.535Z,0.80
2019-03-17T13:49:29.766Z,0.80
2019-03-17T13:51:57.885Z,0.60
2019-03-17T13:54:26.004Z,1.07
2019-03-17T13:56:56.558Z,1.03
2019-03-17T13:59:24.613Z,0.73
2019-03-17T14:01:52.775Z,1.23
2019-03-17T14:04:21.156Z,0.63
2019-03-17T14:06:49.282Z,1.03
2019-03-17T14:09:17.532Z,0.80
2019-03-17T14:11:47.278Z,0.70
2019-03-17T14:14:15.449Z,0.53
2019-03-17T14:16:43.574Z,2.37
2019-03-17T14:19:11.725Z,0.97
2019-03-17T14:21:39.965Z,1.00
2019-03-17T14:24:08.091Z,1.10
2019-03-17T14:26:36.428Z,1.10
2019-03-17T14:29:04.725Z,0.80
2019-03-17T14:31:33.083Z,0.80
2019-03-17T14:34:01.536Z,0.90
2019-03-17T14:36:29.635Z,1.30
2019-03-17T14:38:57.739Z,0.80
2019-03-17T14:41:25.917Z,1.57
2019-03-17T14:43:53.964Z,0.80
2019-03-17T14:46:22.043Z,1.50
2019-03-17T14:48:50.500Z,1.10
2019-03-17T14:51:18.604Z,1.10
2019-03-17T14:53:47.342Z,1.20
2019-03-17T14:56:15.539Z,0.90
2019-03-17T14:58:43.699Z,1.20
2019-03-17T15:01:11.948Z,1.30
2019-03-17T15:03:40.149Z,1.10
2019-03-17T15:06:08.250Z,0.90
2019-03-17T15:08:36.310Z,0.90
2019-03-17T15:11:06.270Z,1.40
2019-03-17T15:13:34.602Z,1.13
2019-03-17T15:16:03.381Z,1.17
2019-03-17T15:18:31.569Z,1.07
2019-03-17T15:20:59.951Z,1.30
2019-03-17T15:23:28.633Z,1.30
2019-03-17T15:25:57.158Z,0.90
2019-03-17T15:28:25.345Z,0.90
2019-03-17T15:31:09.726Z,1.00
2019-03-17T15:33:24.596Z,1.00
2019-03-17T15:35:52.888Z,1.23
2019-03-17T15:38:21.317Z,1.17
2019-03-17T15:40:49.857Z,0.97
2019-03-17T15:43:17.920Z,1.20
2019-03-17T15:45:46.146Z,1.33
2019-03-17T15:48:14.429Z,1.60
2019-03-17T15:50:42.520Z,1.77
2019-03-17T15:53:11.047Z,1.60
2019-03-17T15:55:39.169Z,1.20
2019-03-17T15:58:07.286Z,1.20
2019-03-17T16:00:35.469Z,1.57
2019-03-17T16:03:03.771Z,1.30
2019-03-17T16:05:32.197Z,1.17
2019-03-17T16:08:00.662Z,0.80
2019-03-17T16:10:28.838Z,0.90
2019-03-17T16:12:57.473Z,2.50
2019-03-17T16:15:26.299Z,1.90
2019-03-17T16:17:54.881Z,1.50
2019-03-17T16:20:23.729Z,1.63
2019-03-17T16:22:51.993Z,1.10
2019-03-17T16:25:20.576Z,1.87
2019-03-17T16:27:48.781Z,1.00
2019-03-17T16:30:19.345Z,1.20
2019-03-17T16:32:47.805Z,1.10
2019-03-17T16:35:16.931Z,0.50
2019-03-17T16:37:48.974Z,0.70
2019-03-17T16:40:19.257Z,1.60
2019-03-17T16:42:47.708Z,1.00
2019-03-17T16:45:16.991Z,1.30
2019-03-17T16:47:45.130Z,1.20
2019-03-17T16:50:15.321Z,1.10
2019-03-17T16:52:43.573Z,1.23
2019-03-17T16:55:12.462Z,1.37
2019-03-17T16:57:40.619Z,1.10
2019-03-17T17:00:14.151Z,1.50
2019-03-17T17:02:42.543Z,1.43
2019-03-17T17:05:11.995Z,1.00
2019-03-17T17:07:40.727Z,0.90
2019-03-17T17:10:12.192Z,1.83
2019-03-17T17:12:41.919Z,1.27
2019-03-17T17:15:16.150Z,1.27
2019-03-17T17:17:44.588Z,1.20
2019-03-17T17:20:16.365Z,1.53
2019-03-17T17:22:44.840Z,1.53
2019-03-17T17:25:13.493Z,1.20
2019-03-17T17:27:41.600Z,0.90
2019-03-17T17:30:12.381Z,0.80
2019-03-17T17:32:40.804Z,1.20
2019-03-17T17:35:12.108Z,0.90
2019-03-17T17:37:40.702Z,1.10
2019-03-17T17:40:11.299Z,0.90
2019-03-17T17:42:39.698Z,1.20
2019-03-17T17:45:09.549Z,1.17
2019-03-17T17:47:37.642Z,1.40
2019-03-17T17:50:06.960Z,1.10
2019-03-17T17:52:35.208Z,1.20
2019-03-17T17:55:03.797Z,1.30
2019-03-17T17:57:31.969Z,1.20
2019-03-17T18:00:00.055Z,1.73
2019-03-17T18:02:28.242Z,1.80
2019-03-17T18:04:56.963Z,1.60
2019-03-17T18:07:25.030Z,2.43
2019-03-17T18:09:53.135Z,2.27
2019-03-17T18:12:21.675Z,0.90
2019-03-17T18:14:50.113Z,0.97
2019-03-17T18:17:19.250Z,1.23
2019-03-17T18:19:48.237Z,1.13
2019-03-17T18:22:16.830Z,1.20
2019-03-17T18:24:45.876Z,1.07
2019-03-17T18:27:15.210Z,1.33
2019-03-17T18:29:43.518Z,1.20
2019-03-17T18:32:12.193Z,1.10
2019-03-17T18:34:40.341Z,1.53
2019-03-17T18:37:10.518Z,1.27
2019-03-17T18:39:38.669Z,2.57
2019-03-17T18:42:07.000Z,1.03
2019-03-17T18:44:35.054Z,1.20
2019-03-17T18:47:03.902Z,1.50
2019-03-17T18:49:31.994Z,1.07
2019-03-17T18:52:00.199Z,1.10
2019-03-17T18:54:28.379Z,1.53
2019-03-17T18:56:56.415Z,1.77
2019-03-17T18:59:24.515Z,1.57
2019-03-17T19:01:52.981Z,0.80
2019-03-17T19:04:21.083Z,0.90
2019-03-17T19:06:49.210Z,1.07
2019-03-17T19:09:17.364Z,1.20
2019-03-17T19:11:45.453Z,1.30
2019-03-17T19:14:13.690Z,1.53
2019-03-17T19:16:42.908Z,1.30
2019-03-17T19:19:11.101Z,1.20
2019-03-17T19:21:39.402Z,1.73
2019-03-17T19:24:07.625Z,1.40
2019-03-17T19:26:35.711Z,1.40
2019-03-17T19:29:03.829Z,1.30
2019-03-17T19:31:33.772Z,1.30
2019-03-17T19:34:02.019Z,1.30
2019-03-17T19:36:30.097Z,1.63
2019-03-17T19:38:58.200Z,1.30
2019-03-17T19:41:26.308Z,1.77
2019-03-17T19:43:54.722Z,1.60
2019-03-17T19:46:22.822Z,1.83
2019-03-17T19:48:51.106Z,1.90
2019-03-17T19:51:19.255Z,1.77
2019-03-17T19:53:47.470Z,1.93
2019-03-17T19:56:15.796Z,1.10
2019-03-17T19:58:44.009Z,1.33
2019-03-17T20:01:12.095Z,1.20
2019-03-17T20:03:40.213Z,1.70
2019-03-17T20:06:10.603Z,1.80
2019-03-17T20:08:38.979Z,1.70
2019-03-17T20:11:07.212Z,1.63
2019-03-17T20:13:35.651Z,1.70
2019-03-17T20:16:03.730Z,1.97
2019-03-17T20:18:31.852Z,2.23
2019-03-17T20:21:00.001Z,1.90
2019-03-17T20:23:28.128Z,1.47
2019-03-17T20:25:56.899Z,1.77
2019-03-17T20:28:24.988Z,1.83
2019-03-17T20:30:53.086Z,1.70
2019-03-17T20:33:21.302Z,2.07
2019-03-17T20:35:49.534Z,2.10
2019-03-17T20:38:18.261Z,1.90
2019-03-17T20:40:46.322Z,2.10
2019-03-17T20:43:24.111Z,1.60
2019-03-17T20:45:44.456Z,2.27
2019-03-17T20:48:12.685Z,2.87
2019-03-17T20:50:40.967Z,1.37
2019-03-17T20:53:09.052Z,2.03
2019-03-17T20:55:39.589Z,1.73
2019-03-17T20:58:07.784Z,1.67
2019-03-17T21:00:35.970Z,1.63
2019-03-17T21:03:04.134Z,1.57
2019-03-17T21:05:32.220Z,1.57
2019-03-17T21:08:00.279Z,1.73
2019-03-17T21:10:28.447Z,2.10
2019-03-17T21:12:56.560Z,1.23
2019-03-17T21:15:25.099Z,1.70
2019-03-17T21:17:53.261Z,1.83
2019-03-17T21:20:21.446Z,1.73
2019-03-17T21:22:49.668Z,1.33
2019-03-17T21:25:17.782Z,1.67
2019-03-17T21:27:46.237Z,1.50
2019-03-17T21:30:17.423Z,1.43
2019-03-17T21:32:46.055Z,1.60
2019-03-17T21:35:14.255Z,1.53
2019-03-17T21:37:42.484Z,1.73
2019-03-17T21:40:10.663Z,1.70
2019-03-17T21:42:39.864Z,1.83
2019-03-17T21:45:08.408Z,1.80
2019-03-17T21:47:36.526Z,1.60
2019-03-17T21:50:07.501Z,2.03
2019-03-17T21:52:35.593Z,2.40
2019-03-17T21:55:04.193Z,1.60
2019-03-17T21:57:32.376Z,1.40
2019-03-17T22:00:00.638Z,1.87
2019-03-17T22:02:29.015Z,1.63
2019-03-17T22:04:57.166Z,1.50
2019-03-17T22:07:25.237Z,1.93
2019-03-17T22:09:53.328Z,1.57
2019-03-17T22:12:21.876Z,1.57
2019-03-17T22:14:49.950Z,1.77
2019-03-17T22:17:18.114Z,1.90
2019-03-17T22:19:46.243Z,1.73
2019-03-17T22:22:14.296Z,1.63
2019-03-17T22:24:42.493Z,1.50
2019-03-17T22:27:10.578Z,1.50
2019-03-17T22:29:38.698Z,1.93
2019-03-17T22:32:06.795Z,1.40
2019-03-17T22:34:34.972Z,1.63
2019-03-17T22:37:03.114Z,1.70
2019-03-17T22:39:31.244Z,1.50
2019-03-17T22:41:59.415Z,1.70
2019-03-17T22:44:28.175Z,1.43
2019-03-17T22:46:56.465Z,1.70
2019-03-17T22:49:24.642Z,1.43
2019-03-17T22:51:52.712Z,1.60
2019-03-17T22:54:20.832Z,1.80
2019-03-17T22:56:48.913Z,1.70
2019-03-17T22:59:16.990Z,1.70
2019-03-17T23:01:45.238Z,1.80
2019-03-17T23:04:13.337Z,1.90
2019-03-17T23:06:41.456Z,1.47
2019-03-17T23:09:09.566Z,1.67
2019-03-17T23:11:38.089Z,1.80
2019-03-17T23:14:06.251Z,1.67
2019-03-17T23:16:35.376Z,1.80
2019-03-17T23:19:03.459Z,2.00
2019-03-17T23:21:31.551Z,1.50
2019-03-17T23:23:59.637Z,1.63
2019-03-17T23:26:27.810Z,1.50
2019-03-17T23:28:55.955Z,1.40
2019-03-17T23:31:24.024Z,1.50
2019-03-17T23:33:52.285Z,1.37
2019-03-17T23:36:20.349Z,1.60
2019-03-17T23:38:48.629Z,1.20
2019-03-17T23:41:16.667Z,1.57
2019-03-17T23:43:44.808Z,1.87
2019-03-17T23:46:12.883Z,1.70
2019-03-17T23:48:41.020Z,1.83
2019-03-17T23:51:09.129Z,1.60
2019-03-17T23:53:37.255Z,1.40
2019-03-17T23:56:05.368Z,1.67
2019-03-17T23:58:33.413Z,1.53
